createdAt,value
2022-10-26T00:01:14.663Z,98.80
2022-10-26T00:04:00.468Z,99.10
2022-10-26T00:06:46.314Z,99.10
2022-10-26T00:09:33.704Z,99.00
2022-10-26T00:12:21.548Z,98.60
2022-10-26T00:15:12.257Z,98.30
2022-10-26T00:17:58.097Z,98.50
2022-10-26T00:20:43.609Z,98.90
2022-10-26T00:23:29.290Z,99.00
2022-10-26T00:26:15.394Z,98.90
2022-10-26T00:29:00.589Z,98.90
2022-10-26T00:31:48.782Z,99.10
2022-10-26T00:34:34.286Z,99.50
2022-10-26T00:37:19.650Z,99.40
2022-10-26T00:40:05.321Z,99.40
2022-10-26T00:42:52.963Z,99.90
2022-10-26T00:45:38.428Z,99.50
2022-10-26T00:48:38.298Z,99.10
2022-10-26T00:51:34.706Z,99.00
2022-10-26T00:54:20.874Z,98.90
2022-10-26T00:57:06.870Z,98.90
2022-10-26T00:59:54.722Z,98.90
2022-10-26T01:02:42.919Z,99.10
2022-10-26T01:05:31.805Z,99.00
2022-10-26T01:08:18.314Z,99.10
2022-10-26T01:11:04.163Z,99.10
2022-10-26T01:13:52.508Z,99.20
2022-10-26T01:16:50.982Z,99.30
2022-10-26T01:20:04.401Z,99.30
2022-10-26T01:22:58.391Z,99.40
2022-10-26T01:25:43.613Z,99.50
2022-10-26T01:29:01.770Z,99.60
2022-10-26T01:32:04.879Z,99.70
2022-10-26T01:35:03.647Z,99.60
2022-10-26T01:38:24.091Z,99.70
2022-10-26T01:41:15.835Z,99.80
2022-10-26T01:44:09.367Z,99.90
2022-10-26T01:46:58.059Z,99.90
2022-10-26T01:49:58.047Z,99.90
2022-10-26T01:52:43.509Z,99.90
2022-10-26T01:55:44.754Z,99.90
2022-10-26T01:58:48.822Z,99.90
2022-10-26T02:01:50.839Z,99.90
2022-10-26T02:04:58.752Z,99.90
2022-10-26T02:08:05.050Z,99.90
2022-10-26T02:11:32.602Z,99.90
2022-10-26T02:15:03.365Z,99.90
2022-10-26T02:18:14.476Z,99.90
2022-10-26T02:21:06.728Z,99.90
2022-10-26T02:23:55.597Z,99.90
2022-10-26T02:26:46.484Z,99.90
2022-10-26T02:29:33.294Z,99.90
2022-10-26T02:32:21.048Z,99.90
2022-10-26T02:35:07.139Z,99.90
2022-10-26T02:37:54.113Z,99.90
2022-10-26T02:40:39.872Z,99.90
2022-10-26T02:43:26.476Z,99.90
2022-10-26T02:46:16.990Z,99.90
2022-10-26T02:49:02.697Z,99.90
2022-10-26T02:52:21.984Z,99.90
2022-10-26T02:55:36.809Z,99.90
2022-10-26T02:58:35.213Z,99.90
2022-10-26T03:01:23.734Z,99.90
2022-10-26T03:04:11.707Z,99.90
2022-10-26T03:06:57.926Z,99.90
2022-10-26T03:09:46.021Z,99.90
2022-10-26T03:12:31.555Z,99.90
2022-10-26T03:15:17.165Z,99.90
2022-10-26T03:18:02.702Z,99.90
2022-10-26T03:20:48.231Z,99.90
2022-10-26T03:23:33.543Z,99.90
2022-10-26T03:26:19.524Z,99.90
2022-10-26T03:29:05.092Z,99.90
2022-10-26T03:31:54.168Z,99.90
2022-10-26T03:34:41.538Z,99.90
2022-10-26T03:37:27.322Z,99.90
2022-10-26T03:40:13.332Z,99.90
2022-10-26T03:42:58.710Z,99.90
2022-10-26T03:45:46.914Z,99.90
2022-10-26T03:48:32.183Z,99.90
2022-10-26T03:51:17.796Z,99.90
2022-10-26T03:54:06.960Z,99.90
2022-10-26T03:56:55.114Z,99.90
2022-10-26T03:59:41.379Z,99.90
2022-10-26T04:02:26.888Z,99.90
2022-10-26T04:05:16.542Z,99.90
2022-10-26T04:08:03.264Z,99.90
2022-10-26T04:10:51.312Z,99.90
2022-10-26T04:13:39.119Z,99.90
2022-10-26T04:16:26.517Z,99.90
2022-10-26T04:19:15.871Z,99.90
2022-10-26T04:22:00.969Z,99.90
2022-10-26T04:24:51.405Z,99.90
2022-10-26T04:27:38.889Z,99.90
2022-10-26T04:30:26.798Z,99.90
2022-10-26T04:33:12.137Z,99.90
2022-10-26T04:36:03.417Z,99.90
2022-10-26T04:38:49.231Z,99.90
2022-10-26T04:41:34.657Z,99.90
2022-10-26T04:44:20.293Z,99.90
2022-10-26T04:47:08.199Z,99.90
2022-10-26T04:49:53.453Z,99.90
2022-10-26T04:52:41.537Z,99.90
2022-10-26T04:55:27.211Z,99.90
2022-10-26T04:58:12.693Z,99.90
2022-10-26T05:00:58.106Z,99.90
2022-10-26T05:03:43.457Z,99.90
2022-10-26T05:06:30.229Z,99.90
2022-10-26T05:09:15.637Z,99.90
2022-10-26T05:12:01.187Z,99.90
2022-10-26T05:14:48.460Z,99.90
2022-10-26T05:17:36.852Z,99.90
2022-10-26T05:20:28.892Z,99.90
2022-10-26T05:23:18.365Z,99.90
2022-10-26T05:26:04.659Z,99.90
2022-10-26T05:28:54.028Z,99.90
2022-10-26T05:31:39.708Z,99.90
2022-10-26T05:34:25.085Z,99.90
2022-10-26T05:37:10.433Z,99.90
2022-10-26T05:39:55.899Z,99.90
2022-10-26T05:42:41.347Z,99.90
2022-10-26T05:45:26.917Z,99.90
2022-10-26T05:48:12.540Z,99.90
2022-10-26T05:51:02.812Z,99.90
2022-10-26T05:53:48.620Z,99.90
2022-10-26T05:56:38.698Z,99.90
2022-10-26T05:59:27.871Z,99.90
2022-10-26T06:02:27.875Z,99.90
2022-10-26T06:05:22.826Z,99.90
2022-10-26T06:08:12.887Z,99.90
2022-10-26T06:10:59.607Z,99.90
2022-10-26T06:13:45.371Z,99.90
2022-10-26T06:16:55.335Z,99.90
2022-10-26T06:19:47.450Z,99.90
2022-10-26T06:22:59.166Z,99.90
2022-10-26T06:26:22.546Z,99.90
2022-10-26T06:29:36.344Z,99.90
2022-10-26T06:32:25.540Z,99.90
2022-10-26T06:35:38.865Z,99.90
2022-10-26T06:38:28.412Z,99.90
2022-10-26T06:41:15.519Z,99.90
2022-10-26T06:44:04.050Z,99.90
2022-10-26T06:46:53.241Z,99.90
2022-10-26T06:49:48.285Z,99.90
2022-10-26T06:53:05.940Z,99.90
2022-10-26T06:55:52.879Z,99.90
2022-10-26T06:58:40.238Z,99.90
2022-10-26T07:01:30.994Z,99.90
2022-10-26T07:04:16.387Z,99.90
2022-10-26T07:07:02.060Z,99.90
2022-10-26T07:09:51.742Z,99.90
2022-10-26T07:12:37.666Z,99.90
2022-10-26T07:15:23.561Z,99.90
2022-10-26T07:18:09.465Z,99.90
2022-10-26T07:20:54.966Z,99.90
2022-10-26T07:23:40.374Z,99.90
2022-10-26T07:26:27.367Z,99.90
2022-10-26T07:29:14.016Z,99.90
2022-10-26T07:31:59.510Z,99.90
2022-10-26T07:34:47.483Z,99.90
2022-10-26T07:37:32.607Z,99.90
2022-10-26T07:40:18.211Z,99.90
2022-10-26T07:43:07.221Z,99.90
2022-10-26T07:45:53.100Z,99.90
2022-10-26T07:48:39.626Z,99.90
2022-10-26T07:51:25.764Z,99.90
2022-10-26T07:54:11.693Z,99.90
2022-10-26T07:56:59.496Z,99.90
2022-10-26T07:59:45.147Z,99.90
2022-10-26T08:02:35.728Z,99.90
2022-10-26T08:05:23.892Z,99.90
2022-10-26T08:08:09.685Z,99.90
2022-10-26T08:10:55.072Z,99.90
2022-10-26T08:13:40.787Z,99.90
2022-10-26T08:16:26.584Z,99.90
2022-10-26T08:19:11.916Z,99.90
2022-10-26T08:21:57.697Z,99.90
2022-10-26T08:24:46.909Z,99.90
2022-10-26T08:27:35.388Z,99.90
2022-10-26T08:30:21.334Z,99.90
2022-10-26T08:33:09.684Z,99.90
2022-10-26T08:35:57.254Z,99.90
2022-10-26T08:38:42.592Z,99.90
2022-10-26T08:41:46.724Z,99.90
2022-10-26T08:44:44.130Z,99.90
2022-10-26T08:47:43.227Z,99.90
2022-10-26T08:50:33.223Z,99.90
2022-10-26T08:53:18.449Z,99.90
2022-10-26T08:56:43.953Z,99.90
2022-10-26T08:59:54.151Z,99.90
2022-10-26T09:02:41.943Z,99.90
2022-10-26T09:05:38.910Z,99.90
2022-10-26T09:08:50.133Z,99.90
2022-10-26T09:11:38.774Z,99.90
2022-10-26T09:15:02.473Z,99.90
2022-10-26T09:22:21.052Z,99.90
2022-10-26T09:25:19.376Z,99.90
2022-10-26T09:28:06.055Z,99.90
2022-10-26T09:30:58.090Z,99.90
2022-10-26T09:33:43.448Z,99.90
2022-10-26T09:36:28.974Z,99.90
2022-10-26T09:39:42.307Z,99.90
2022-10-26T09:42:46.582Z,99.90
2022-10-26T09:45:58.128Z,99.90
2022-10-26T09:48:53.694Z,99.90
2022-10-26T09:51:42.438Z,99.90
2022-10-26T09:54:27.778Z,99.90
2022-10-26T09:57:19.995Z,99.90
2022-10-26T10:00:05.577Z,99.90
2022-10-26T10:02:56.964Z,99.90
2022-10-26T10:05:57.687Z,99.90
2022-10-26T10:08:43.516Z,99.90
2022-10-26T10:11:43.204Z,99.90
2022-10-26T10:14:36.091Z,99.20
2022-10-26T10:17:24.939Z,97.80
2022-10-26T10:20:22.935Z,96.50
2022-10-26T10:23:31.734Z,95.80
2022-10-26T10:26:17.010Z,95.10
2022-10-26T10:29:03.795Z,94.30
2022-10-26T10:31:56.949Z,93.70
2022-10-26T10:34:43.057Z,93.00
2022-10-26T10:37:44.295Z,92.40
2022-10-26T10:40:31.520Z,92.20
2022-10-26T10:43:17.461Z,91.50
2022-10-26T10:46:05.262Z,91.10
2022-10-26T10:49:05.720Z,90.50
2022-10-26T10:51:51.569Z,90.10
2022-10-26T10:54:41.744Z,89.50
2022-10-26T10:57:39.540Z,87.50
2022-10-26T11:00:25.942Z,86.10
2022-10-26T11:03:43.920Z,82.40
2022-10-26T11:06:31.249Z,81.80
2022-10-26T11:09:22.310Z,80.80
2022-10-26T11:12:15.780Z,80.30
2022-10-26T11:15:07.365Z,79.00
2022-10-26T11:18:22.116Z,78.70
2022-10-26T11:21:36.900Z,77.80
2022-10-26T11:24:44.894Z,76.50
2022-10-26T11:27:33.199Z,75.50
2022-10-26T11:30:20.964Z,74.90
2022-10-26T11:33:19.455Z,75.10
2022-10-26T11:36:11.791Z,74.30
2022-10-26T11:39:21.096Z,73.20
2022-10-26T11:42:32.607Z,73.00
2022-10-26T11:45:31.450Z,72.40
2022-10-26T11:48:28.441Z,72.80
2022-10-26T11:51:30.068Z,71.40
2022-10-26T11:54:24.813Z,70.50
2022-10-26T11:57:11.289Z,70.60
2022-10-26T12:00:17.152Z,69.90
2022-10-26T12:03:18.745Z,70.00
2022-10-26T12:06:04.551Z,70.00
2022-10-26T12:09:10.200Z,69.50
2022-10-26T12:12:01.551Z,68.80
2022-10-26T12:15:13.240Z,68.40
2022-10-26T12:18:26.823Z,67.70
2022-10-26T12:21:17.992Z,67.30
2022-10-26T12:24:26.511Z,66.40
2022-10-26T12:27:33.699Z,66.50
2022-10-26T12:30:19.437Z,66.00
2022-10-26T12:33:28.877Z,66.20
2022-10-26T12:36:48.905Z,65.80
2022-10-26T12:39:36.243Z,64.20
2022-10-26T12:42:24.573Z,62.70
2022-10-26T12:45:21.034Z,59.10
2022-10-26T12:48:38.126Z,42.00
2022-10-26T12:51:27.336Z,28.50
2022-10-26T12:54:45.814Z,21.30
2022-10-26T12:57:38.930Z,16.50
2022-10-26T13:00:26.917Z,22.10
2022-10-26T13:03:36.204Z,24.40
2022-10-26T13:06:39.735Z,24.80
2022-10-26T13:09:29.719Z,22.30
2022-10-26T13:12:15.150Z,24.20
2022-10-26T13:15:31.114Z,23.90
2022-10-26T13:18:19.035Z,21.70
2022-10-26T13:21:14.940Z,25.30
2022-10-26T13:24:08.204Z,28.00
2022-10-26T13:27:05.590Z,27.70
2022-10-26T13:30:03.406Z,29.30
2022-10-26T13:32:57.389Z,33.80
2022-10-26T13:35:43.832Z,37.20
2022-10-26T13:38:33.994Z,40.40
2022-10-26T13:41:38.714Z,43.00
2022-10-26T13:44:42.243Z,45.10
2022-10-26T13:47:41.533Z,47.30
2022-10-26T13:50:32.565Z,48.30
2022-10-26T13:53:37.587Z,49.70
2022-10-26T13:56:32.324Z,51.20
2022-10-26T14:02:15.779Z,53.40
2022-10-26T14:05:04.094Z,54.00
2022-10-26T14:07:58.857Z,54.70
2022-10-26T14:10:54.386Z,55.20
2022-10-26T14:13:42.569Z,56.20
2022-10-26T14:16:32.157Z,56.90
2022-10-26T14:19:24.468Z,57.40
2022-10-26T14:22:23.135Z,57.40
2022-10-26T14:25:35.946Z,58.00
2022-10-26T14:28:51.615Z,58.10
2022-10-26T14:31:38.581Z,58.80
2022-10-26T14:34:24.315Z,59.10
2022-10-26T14:37:11.575Z,59.60
2022-10-26T14:39:57.214Z,60.10
2022-10-26T14:42:50.325Z,60.90
2022-10-26T14:45:54.367Z,61.60
2022-10-26T14:48:50.296Z,62.00
2022-10-26T14:51:38.594Z,62.00
2022-10-26T14:54:28.977Z,62.60
2022-10-26T14:57:35.289Z,63.00
2022-10-26T15:00:25.350Z,63.40
2022-10-26T15:03:18.769Z,63.50
2022-10-26T15:06:28.999Z,63.30
2022-10-26T15:09:46.341Z,64.00
2022-10-26T15:12:36.658Z,63.80
2022-10-26T15:15:29.178Z,64.40
2022-10-26T15:18:23.268Z,64.60
2022-10-26T15:21:27.851Z,64.80
2022-10-26T15:24:36.106Z,65.10
2022-10-26T15:27:25.762Z,65.00
2022-10-26T15:30:25.109Z,65.20
2022-10-26T15:33:27.786Z,65.30
2022-10-26T15:36:16.877Z,65.70
2022-10-26T15:39:02.797Z,65.80
2022-10-26T15:41:52.447Z,66.10
2022-10-26T15:44:37.739Z,66.70
2022-10-26T15:47:30.515Z,66.70
2022-10-26T15:50:19.519Z,67.30
2022-10-26T15:53:17.997Z,69.10
2022-10-26T15:56:11.085Z,69.00
2022-10-26T15:58:57.897Z,69.80
2022-10-26T16:01:46.163Z,70.50
2022-10-26T16:04:36.315Z,71.00
2022-10-26T16:07:25.853Z,71.80
2022-10-26T16:10:25.204Z,72.40
2022-10-26T16:13:14.781Z,73.50
2022-10-26T16:16:03.348Z,74.30
2022-10-26T16:19:11.748Z,74.80
2022-10-26T16:22:02.003Z,75.70
2022-10-26T16:24:47.718Z,76.00
2022-10-26T16:27:33.064Z,76.60
2022-10-26T16:30:19.611Z,77.00
2022-10-26T16:33:05.020Z,77.30
2022-10-26T16:36:00.927Z,77.20
2022-10-26T16:38:46.585Z,77.30
2022-10-26T16:41:32.150Z,77.20
2022-10-26T16:44:17.465Z,77.50
2022-10-26T16:47:02.806Z,77.60
2022-10-26T16:49:48.230Z,77.70
2022-10-26T16:52:39.794Z,77.80
2022-10-26T16:55:25.609Z,78.10
2022-10-26T16:58:10.953Z,78.20
2022-10-26T17:00:56.653Z,78.40
2022-10-26T17:03:41.918Z,78.70
2022-10-26T17:06:27.627Z,78.80
2022-10-26T17:09:13.071Z,78.70
2022-10-26T17:12:01.950Z,78.90
2022-10-26T17:14:50.422Z,78.70
2022-10-26T17:17:38.231Z,78.50
2022-10-26T17:20:25.726Z,78.40
2022-10-26T17:23:11.071Z,78.40
2022-10-26T17:26:01.866Z,78.30
2022-10-26T17:28:52.281Z,78.20
2022-10-26T17:31:37.701Z,78.00
2022-10-26T17:34:25.657Z,77.70
2022-10-26T17:37:10.977Z,77.80
2022-10-26T17:39:56.254Z,77.80
2022-10-26T17:42:41.743Z,78.00
2022-10-26T17:45:27.405Z,78.30
2022-10-26T17:48:15.242Z,78.20
2022-10-26T17:51:06.286Z,78.00
2022-10-26T17:53:52.433Z,78.00
2022-10-26T17:56:47.031Z,78.10
2022-10-26T17:59:32.287Z,78.10
2022-10-26T18:02:19.839Z,78.10
2022-10-26T18:05:07.616Z,78.10
2022-10-26T18:07:53.375Z,78.10
2022-10-26T18:10:38.891Z,78.00
2022-10-26T18:13:28.729Z,77.90
2022-10-26T18:16:22.036Z,78.00
2022-10-26T18:19:07.763Z,78.10
2022-10-26T18:21:53.299Z,77.90
2022-10-26T18:24:39.167Z,77.80
2022-10-26T18:27:24.911Z,77.70
2022-10-26T18:30:13.509Z,77.60
2022-10-26T18:32:58.905Z,77.40
2022-10-26T18:35:46.310Z,77.30
2022-10-26T18:38:35.104Z,77.30
2022-10-26T18:41:22.169Z,77.10
2022-10-26T18:44:09.434Z,77.00
2022-10-26T18:46:55.760Z,76.90
2022-10-26T18:49:41.943Z,76.80
2022-10-26T18:52:28.192Z,76.90
2022-10-26T18:55:13.465Z,76.80
2022-10-26T18:57:59.149Z,76.80
2022-10-26T19:00:46.977Z,76.10
2022-10-26T19:03:32.744Z,76.30
2022-10-26T19:06:27.464Z,76.60
2022-10-26T19:09:16.282Z,76.80
2022-10-26T19:12:04.761Z,76.70
2022-10-26T19:14:51.494Z,76.70
2022-10-26T19:17:36.750Z,77.10
2022-10-26T19:20:22.084Z,77.30
2022-10-26T19:23:07.441Z,77.30
2022-10-26T19:25:58.998Z,77.40
2022-10-26T19:28:44.926Z,77.50
2022-10-26T19:31:33.739Z,77.90
2022-10-26T19:34:19.876Z,78.30
2022-10-26T19:37:05.602Z,79.00
2022-10-26T19:39:51.549Z,79.60
2022-10-26T19:42:37.055Z,80.20
2022-10-26T19:45:22.584Z,80.70
2022-10-26T19:48:11.141Z,81.40
2022-10-26T19:50:57.672Z,82.30
2022-10-26T19:53:43.187Z,83.00
2022-10-26T19:56:28.733Z,83.60
2022-10-26T19:59:14.239Z,84.60
2022-10-26T20:02:00.455Z,85.10
2022-10-26T20:04:46.922Z,85.60
2022-10-26T20:07:34.874Z,86.50
2022-10-26T20:10:20.607Z,87.90
2022-10-26T20:13:08.626Z,88.10
2022-10-26T20:15:57.209Z,88.80
2022-10-26T20:18:45.944Z,89.50
2022-10-26T20:21:35.336Z,89.90
2022-10-26T20:24:20.666Z,90.10
2022-10-26T20:27:08.039Z,90.50
2022-10-26T20:29:55.683Z,90.70
2022-10-26T20:32:41.170Z,90.90
2022-10-26T20:35:26.976Z,91.00
2022-10-26T20:38:19.842Z,91.30
2022-10-26T20:41:07.980Z,91.60
2022-10-26T20:43:58.033Z,91.90
2022-10-26T20:46:44.229Z,92.60
2022-10-26T20:49:29.989Z,93.20
2022-10-26T20:52:22.079Z,93.30
2022-10-26T20:55:23.184Z,93.20
2022-10-26T20:58:30.081Z,92.80
2022-10-26T21:01:23.738Z,92.90
2022-10-26T21:04:09.216Z,92.70
2022-10-26T21:06:57.208Z,92.20
2022-10-26T21:09:42.831Z,91.80
2022-10-26T21:12:28.100Z,91.50
2022-10-26T21:15:13.895Z,91.40
2022-10-26T21:17:59.432Z,91.20
2022-10-26T21:20:45.037Z,90.80
2022-10-26T21:23:36.289Z,90.50
2022-10-26T21:26:21.898Z,90.40
2022-10-26T21:29:07.445Z,90.40
2022-10-26T21:31:52.853Z,90.30
2022-10-26T21:34:38.055Z,90.30
2022-10-26T21:37:26.563Z,90.20
2022-10-26T21:40:13.255Z,90.20
2022-10-26T21:42:58.531Z,90.20
2022-10-26T21:45:43.713Z,90.50
2022-10-26T21:48:30.607Z,90.20
2022-10-26T21:51:18.646Z,90.20
2022-10-26T21:54:07.057Z,90.20
2022-10-26T21:56:52.535Z,90.20
2022-10-26T21:59:40.934Z,90.20
2022-10-26T22:02:26.342Z,90.20
2022-10-26T22:05:11.731Z,90.20
2022-10-26T22:07:57.102Z,90.20
2022-10-26T22:10:42.721Z,90.50
2022-10-26T22:13:30.819Z,90.40
2022-10-26T22:16:21.580Z,90.60
2022-10-26T22:19:09.863Z,90.60
2022-10-26T22:21:55.336Z,90.50
2022-10-26T22:24:43.025Z,90.80
2022-10-26T22:27:29.586Z,90.60
2022-10-26T22:30:15.068Z,90.80
2022-10-26T22:33:00.892Z,90.70
2022-10-26T22:35:46.650Z,90.80
2022-10-26T22:38:32.599Z,90.80
2022-10-26T22:41:19.595Z,90.90
2022-10-26T22:44:05.341Z,91.20
2022-10-26T22:46:51.138Z,91.20
2022-10-26T22:49:36.445Z,91.10
2022-10-26T22:52:23.042Z,91.00
2022-10-26T22:55:08.632Z,91.10
2022-10-26T22:57:56.860Z,91.10
2022-10-26T23:00:42.188Z,91.30
2022-10-26T23:03:28.529Z,91.40
2022-10-26T23:06:21.501Z,91.40
2022-10-26T23:09:09.593Z,91.60
2022-10-26T23:11:55.138Z,91.70
2022-10-26T23:14:40.570Z,91.60
2022-10-26T23:17:28.216Z,91.50
2022-10-26T23:20:13.566Z,91.70
2022-10-26T23:22:59.768Z,91.60
2022-10-26T23:25:48.417Z,91.70
2022-10-26T23:28:39.307Z,91.50
2022-10-26T23:31:27.309Z,91.50
2022-10-26T23:34:13.084Z,91.50
2022-10-26T23:37:00.577Z,91.50
2022-10-26T23:39:48.124Z,91.60
2022-10-26T23:42:35.606Z,91.60
2022-10-26T23:45:21.372Z,91.70
2022-10-26T23:48:06.900Z,91.80
2022-10-26T23:50:52.536Z,92.00
2022-10-26T23:53:37.927Z,91.90
2022-10-26T23:56:26.328Z,91.80
2022-10-26T23:59:11.811Z,91.90
